Time;durP1;ratioP1;P1;durP2;ratioP2;P2;SDS_P1;SDS_P2;PMS_P1;PMS_P2;Temp;Humidity;BMP_temperature;BMP_pressure;BME280_temperature;BME280_humidity;BME280_pressure;Samples;Min_cycle;Max_cycle;Signal;HPM_P1;HPM_P2
2023/02/10 00:00:03;;;;;;;19.77;10.18;;;;;;;;;;10403812;28;20372;-74
2023/02/10 00:05:04;;;;;;;16.17;10.82;;;;;;;;;;10377122;28;20028;-78
2023/02/10 00:10:04;;;;;;;19.33;9.15;;;;;;;;;;10376160;28;20503;-80
2023/02/10 00:15:05;;;;;;;23.73;11.80;;;;;;;;;;10382901;28;20069;-77
2023/02/10 00:20:07;;;;;;;21.13;10.32;;;;;;;;;;10391300;28;20017;-78
2023/02/10 00:25:08;;;;;;;20.67;11.45;;;;;;;;;;10367086;28;20403;-76
2023/02/10 00:30:08;;;;;;;15.68;9.77;;;;;;;;;;10366044;28;20087;-77
2023/02/10 00:35:08;;;;;;;25.05;15.63;;;;;;;;;;10367493;28;20030;-77
2023/02/10 00:40:09;;;;;;;29.70;12.67;;;;;;;;;;10388002;28;20121;-78
2023/02/10 00:45:09;;;;;;;29.10;15.00;;;;;;;;;;10378639;28;20037;-72
2023/02/10 00:50:10;;;;;;;28.90;15.43;;;;;;;;;;10403578;28;20292;-77
2023/02/10 00:55:10;;;;;;;24.73;13.68;;;;;;;;;;10403925;28;20037;-77
2023/02/10 01:00:10;;;;;;;17.92;10.45;;;;;;;;;;10387410;28;20018;-76
2023/02/10 01:05:10;;;;;;;23.73;12.40;;;;;;;;;;10385043;28;20048;-79
2023/02/10 01:10:11;;;;;;;24.10;14.55;;;;;;;;;;10386398;28;20031;-78
2023/02/10 01:15:13;;;;;;;19.30;11.63;;;;;;;;;;10403953;28;20025;-79
2023/02/10 01:20:13;;;;;;;23.98;13.25;;;;;;;;;;10369485;28;20029;-78
2023/02/10 01:25:14;;;;;;;30.83;12.98;;;;;;;;;;10385914;28;20086;-76
2023/02/10 01:30:15;;;;;;;17.45;12.13;;;;;;;;;;10419493;28;20561;-79
2023/02/10 01:35:15;;;;;;;19.30;12.18;;;;;;;;;;10387865;28;20018;-77
2023/02/10 01:40:15;;;;;;;13.03;8.77;;;;;;;;;;10368903;28;20565;-78
2023/02/10 01:45:28;;;;;;;7.45;6.07;;;;;;;;;;10401833;28;20045;-73
2023/02/10 01:50:37;;;;;;;11.30;9.18;;;;;;;;;;10385177;28;20033;-79
2023/02/10 01:55:40;;;;;;;16.58;11.05;;;;;;;;;;10402484;28;20087;-79
2023/02/10 02:00:40;;;;;;;17.75;13.98;;;;;;;;;;10384909;28;20018;-79
2023/02/10 02:05:41;;;;;;;19.77;14.57;;;;;;;;;;10384310;28;20029;-74
2023/02/10 02:10:44;;;;;;;27.30;16.50;;;;;;;;;;10359901;28;20455;-77
2023/02/10 02:16:08;;;;;;;17.48;15.30;;;;;;;;;;10372675;28;20025;-73
2023/02/10 02:21:28;;;;;;;21.10;18.83;;;;;;;;;;10375714;28;20049;-73
2023/02/10 02:26:41;;;;;;;21.10;11.20;;;;;;;;;;10400732;28;20037;-78
2023/02/10 02:32:00;;;;;;;23.50;14.95;;;;;;;;;;10400890;28;20025;-77
2023/02/10 02:37:06;;;;;;;19.65;13.10;;;;;;;;;;10345212;28;20407;-78
2023/02/10 02:42:24;;;;;;;18.83;12.68;;;;;;;;;;10383223;28;20025;-78
2023/02/10 02:47:24;;;;;;;19.70;14.05;;;;;;;;;;10382564;28;20076;-75
2023/02/10 02:52:31;;;;;;;16.15;12.70;;;;;;;;;;10383305;28;20120;-80
2023/02/10 02:58:01;;;;;;;20.38;14.48;;;;;;;;;;10370512;28;20148;-78
2023/02/10 03:03:01;;;;;;;19.65;17.92;;;;;;;;;;10397189;28;20026;-77
2023/02/10 03:08:02;;;;;;;18.02;15.30;;;;;;;;;;10396322;28;20029;-75
2023/02/10 03:13:02;;;;;;;17.10;15.18;;;;;;;;;;10397117;28;20495;-78
2023/02/10 03:18:03;;;;;;;28.63;20.25;;;;;;;;;;10395435;28;20050;-76
2023/02/10 03:23:04;;;;;;;29.38;17.48;;;;;;;;;;10396229;28;20037;-77
2023/02/10 03:28:05;;;;;;;20.35;14.13;;;;;;;;;;10397078;28;20095;-76
2023/02/10 03:33:06;;;;;;;43.17;26.40;;;;;;;;;;10420071;28;20025;-77
2023/02/10 03:38:06;;;;;;;57.63;27.88;;;;;;;;;;10396735;28;20079;-77
2023/02/10 03:43:07;;;;;;;43.88;27.42;;;;;;;;;;10419021;22;20079;-77
2023/02/10 03:48:08;;;;;;;68.47;31.63;;;;;;;;;;10346784;28;20027;-73
2023/02/10 03:53:09;;;;;;;67.65;31.52;;;;;;;;;;10339303;28;20014;-73
2023/02/10 03:58:09;;;;;;;51.70;29.37;;;;;;;;;;10325092;28;20022;-75
2023/02/10 04:03:10;;;;;;;49.40;29.90;;;;;;;;;;10344775;28;20073;-76
2023/02/10 04:08:10;;;;;;;52.00;31.30;;;;;;;;;;10314094;28;20039;-72
2023/02/10 04:13:11;;;;;;;48.42;29.13;;;;;;;;;;10307473;28;20428;-81
2023/02/10 04:18:11;;;;;;;46.25;24.77;;;;;;;;;;10341408;28;20022;-75
2023/02/10 04:23:11;;;;;;;57.05;28.40;;;;;;;;;;10338674;28;20494;-77
2023/02/10 04:28:11;;;;;;;58.22;29.65;;;;;;;;;;10321116;28;20026;-73
2023/02/10 04:33:12;;;;;;;51.85;31.52;;;;;;;;;;10307427;28;20042;-76
2023/02/10 04:38:12;;;;;;;64.10;36.10;;;;;;;;;;10323004;28;20122;-72
2023/02/10 04:43:13;;;;;;;64.32;36.08;;;;;;;;;;10322120;28;20571;-74
2023/02/10 04:48:16;;;;;;;48.35;27.38;;;;;;;;;;10321545;28;20018;-73
2023/02/10 04:53:16;;;;;;;52.35;25.73;;;;;;;;;;10311736;28;20023;-75
2023/02/10 04:58:17;;;;;;;54.95;26.58;;;;;;;;;;10299941;28;20026;-74
2023/02/10 05:03:17;;;;;;;50.90;30.70;;;;;;;;;;10322083;28;20060;-79
2023/02/10 05:08:23;;;;;;;58.97;30.08;;;;;;;;;;10331776;28;20030;-78
2023/02/10 05:13:23;;;;;;;59.33;33.47;;;;;;;;;;10312346;28;20023;-72
2023/02/10 05:18:23;;;;;;;52.33;27.02;;;;;;;;;;10302312;28;20030;-75
2023/02/10 05:23:24;;;;;;;53.65;25.35;;;;;;;;;;10319390;28;20144;-76
2023/02/10 05:28:25;;;;;;;43.72;22.45;;;;;;;;;;10320685;28;20092;-74
2023/02/10 05:33:25;;;;;;;50.92;27.30;;;;;;;;;;10322830;28;20496;-79
2023/02/10 05:38:26;;;;;;;30.75;17.17;;;;;;;;;;10316546;28;20022;-75
2023/02/10 05:43:27;;;;;;;31.80;16.85;;;;;;;;;;10317588;28;20064;-74
2023/02/10 05:48:28;;;;;;;26.30;16.63;;;;;;;;;;10317229;28;20033;-78
2023/02/10 05:53:28;;;;;;;29.33;15.90;;;;;;;;;;10318009;28;20037;-79
2023/02/10 05:58:32;;;;;;;34.13;16.80;;;;;;;;;;10317129;28;20096;-78
2023/02/10 06:03:32;;;;;;;30.95;16.88;;;;;;;;;;10328940;28;20018;-77
2023/02/10 06:08:32;;;;;;;27.57;16.80;;;;;;;;;;10329324;28;20033;-78
2023/02/10 06:13:33;;;;;;;26.93;14.10;;;;;;;;;;10318408;28;20372;-73
2023/02/10 06:18:33;;;;;;;25.85;13.85;;;;;;;;;;10321142;28;20261;-75
2023/02/10 06:23:34;;;;;;;24.03;17.47;;;;;;;;;;10326479;28;20022;-75
2023/02/10 06:28:34;;;;;;;42.90;15.80;;;;;;;;;;10317561;28;20033;-75
2023/02/10 06:33:35;;;;;;;32.47;13.70;;;;;;;;;;10316569;28;20065;-78
2023/02/10 06:38:36;;;;;;;30.80;15.27;;;;;;;;;;10329053;28;20046;-79
2023/02/10 06:43:36;;;;;;;31.38;19.00;;;;;;;;;;10316736;28;20183;-75
2023/02/10 06:48:36;;;;;;;34.22;16.52;;;;;;;;;;10319191;28;20060;-79
2023/02/10 06:53:37;;;;;;;38.20;18.23;;;;;;;;;;10316865;28;20037;-73
2023/02/10 06:58:37;;;;;;;35.25;17.45;;;;;;;;;;10316695;28;20092;-76
2023/02/10 07:03:37;;;;;;;31.98;15.73;;;;;;;;;;10315821;28;20038;-78
2023/02/10 07:08:37;;;;;;;32.40;17.27;;;;;;;;;;10317522;28;20034;-73
2023/02/10 07:13:38;;;;;;;35.85;18.38;;;;;;;;;;10316593;28;20034;-77
2023/02/10 07:18:38;;;;;;;40.10;19.38;;;;;;;;;;10317653;28;20104;-76
2023/02/10 07:23:39;;;;;;;36.85;17.55;;;;;;;;;;10318527;28;20033;-75
2023/02/10 07:28:40;;;;;;;48.30;19.42;;;;;;;;;;10318327;28;20394;-78
2023/02/10 07:33:40;;;;;;;37.78;18.25;;;;;;;;;;10316772;28;20027;-80
2023/02/10 07:38:40;;;;;;;36.33;18.13;;;;;;;;;;10318668;28;20022;-80
2023/02/10 07:43:41;;;;;;;40.13;18.27;;;;;;;;;;10311214;28;20116;-79
2023/02/10 07:48:41;;;;;;;41.13;17.73;;;;;;;;;;10318724;28;20030;-80
2023/02/10 07:53:42;;;;;;;46.03;18.17;;;;;;;;;;10318865;28;20499;-76
2023/02/10 07:58:42;;;;;;;45.03;19.85;;;;;;;;;;10334301;28;20022;-80
2023/02/10 08:03:43;;;;;;;42.50;19.40;;;;;;;;;;10340168;28;20085;-71
2023/02/10 08:08:43;;;;;;;46.17;19.90;;;;;;;;;;10332182;28;20066;-80
2023/02/10 08:13:44;;;;;;;54.08;20.70;;;;;;;;;;10322512;28;20026;-80
2023/02/10 08:18:44;;;;;;;42.03;19.70;;;;;;;;;;10320627;28;20532;-76
2023/02/10 08:23:45;;;;;;;41.60;18.45;;;;;;;;;;10320329;28;20042;-78
2023/02/10 08:28:47;;;;;;;43.47;19.02;;;;;;;;;;10330353;28;20021;-79
2023/02/10 08:33:47;;;;;;;45.72;19.33;;;;;;;;;;10364168;28;20048;-78
2023/02/10 08:38:48;;;;;;;43.97;18.90;;;;;;;;;;10319926;28;20026;-73
2023/02/10 08:43:48;;;;;;;41.78;19.35;;;;;;;;;;10323424;28;20152;-78
2023/02/10 08:48:49;;;;;;;46.53;20.60;;;;;;;;;;10322033;28;20161;-79
2023/02/10 08:53:49;;;;;;;45.60;19.15;;;;;;;;;;10320606;28;20413;-78
2023/02/10 08:58:50;;;;;;;41.13;19.63;;;;;;;;;;10319953;28;20027;-73
2023/02/10 09:03:50;;;;;;;41.60;20.67;;;;;;;;;;10318939;28;20029;-76
2023/02/10 09:08:52;;;;;;;40.85;18.40;;;;;;;;;;10318188;28;20030;-79
2023/02/10 09:13:53;;;;;;;41.42;16.98;;;;;;;;;;10317638;28;20485;-77
2023/02/10 09:18:53;;;;;;;32.42;15.35;;;;;;;;;;10321461;28;20023;-74
2023/02/10 09:23:53;;;;;;;47.07;17.57;;;;;;;;;;10321504;28;20027;-77
2023/02/10 09:28:54;;;;;;;35.85;15.55;;;;;;;;;;10319891;28;20049;-79
2023/02/10 09:33:54;;;;;;;38.47;17.40;;;;;;;;;;10320287;28;20534;-75
2023/02/10 09:38:55;;;;;;;38.10;18.50;;;;;;;;;;10320042;28;20472;-74
2023/02/10 09:44:06;;;;;;;46.25;18.73;;;;;;;;;;10321161;28;20115;-74
2023/02/10 09:49:22;;;;;;;41.13;17.25;;;;;;;;;;10319058;28;20030;-73
2023/02/10 09:54:22;;;;;;;43.05;17.83;;;;;;;;;;10321308;28;20022;-74
2023/02/10 09:59:25;;;;;;;44.53;17.07;;;;;;;;;;10266361;28;20035;-74
2023/02/10 10:04:27;;;;;;;36.13;15.07;;;;;;;;;;10300225;28;20704;-79
2023/02/10 10:09:39;;;;;;;31.95;14.75;;;;;;;;;;10316693;28;20027;-76
2023/02/10 10:14:43;;;;;;;43.60;15.95;;;;;;;;;;10317899;28;20022;-77
2023/02/10 10:19:56;;;;;;;35.40;14.70;;;;;;;;;;10318162;28;20023;-80
2023/02/10 10:25:03;;;;;;;40.15;17.90;;;;;;;;;;10319034;28;20085;-83
2023/02/10 10:30:10;;;;;;;32.85;14.68;;;;;;;;;;10317390;28;20018;-74
2023/02/10 10:35:17;;;;;;;37.35;15.85;;;;;;;;;;10318062;28;20030;-73
2023/02/10 10:40:22;;;;;;;34.03;14.55;;;;;;;;;;10318238;28;20014;-79
2023/02/10 10:45:26;;;;;;;40.75;15.75;;;;;;;;;;10317738;28;20137;-75
2023/02/10 10:50:26;;;;;;;33.72;15.23;;;;;;;;;;10316658;28;20038;-79
2023/02/10 10:55:31;;;;;;;36.13;14.20;;;;;;;;;;10315768;28;20055;-79
2023/02/10 11:00:31;;;;;;;29.95;13.55;;;;;;;;;;10314292;28;20033;-78
2023/02/10 11:05:32;;;;;;;32.92;14.85;;;;;;;;;;10313477;28;20034;-80
2023/02/10 11:10:33;;;;;;;31.75;15.73;;;;;;;;;;10316774;28;20018;-76
2023/02/10 11:15:41;;;;;;;31.13;14.75;;;;;;;;;;10317339;28;20365;-77
2023/02/10 11:20:51;;;;;;;28.88;15.55;;;;;;;;;;10322736;28;20019;-78
2023/02/10 11:25:59;;;;;;;31.75;16.02;;;;;;;;;;10325695;28;20034;-80
2023/02/10 11:31:18;;;;;;;30.83;14.98;;;;;;;;;;10324409;28;20046;-73
2023/02/10 11:36:18;;;;;;;29.90;15.07;;;;;;;;;;10279846;28;20026;-80
2023/02/10 11:41:28;;;;;;;34.42;14.35;;;;;;;;;;10335445;28;20032;-82
2023/02/10 11:46:29;;;;;;;29.17;14.68;;;;;;;;;;10334772;28;20051;-78
2023/02/10 11:51:30;;;;;;;28.60;13.02;;;;;;;;;;10330762;28;20022;-79
2023/02/10 12:02:42;;;;;;;36.25;15.85;;;;;;;;;;10305952;28;20030;-80
2023/02/10 12:07:45;;;;;;;40.55;16.05;;;;;;;;;;10298926;28;20045;-79
2023/02/10 12:12:54;;;;;;;32.65;16.38;;;;;;;;;;10325688;28;20022;-80
2023/02/10 12:18:04;;;;;;;35.85;18.20;;;;;;;;;;10323329;28;20029;-79
2023/02/10 12:23:15;;;;;;;44.45;20.70;;;;;;;;;;10346982;28;20017;-79
2023/02/10 12:28:31;;;;;;;42.50;18.95;;;;;;;;;;10336380;28;20042;-79
2023/02/10 12:33:37;;;;;;;40.20;19.85;;;;;;;;;;10322218;28;20467;-77
2023/02/10 12:38:45;;;;;;;48.50;22.70;;;;;;;;;;10322005;28;20058;-76
2023/02/10 12:43:45;;;;;;;49.90;22.75;;;;;;;;;;10306921;28;20058;-78
2023/02/10 12:48:57;;;;;;;46.45;20.77;;;;;;;;;;10322320;28;20022;-81
2023/02/10 12:54:01;;;;;;;45.85;20.92;;;;;;;;;;10323070;28;20053;-77
2023/02/10 12:59:04;;;;;;;41.88;19.90;;;;;;;;;;10322450;28;20058;-76
2023/02/10 13:04:27;;;;;;;43.70;21.70;;;;;;;;;;10321192;28;20056;-75
2023/02/10 13:09:39;;;;;;;42.13;21.73;;;;;;;;;;10297128;28;20037;-79
2023/02/10 13:14:41;;;;;;;40.58;18.58;;;;;;;;;;10321092;28;20481;-79
2023/02/10 13:20:02;;;;;;;39.17;18.70;;;;;;;;;;10322005;28;20108;-79
2023/02/10 13:25:08;;;;;;;35.35;16.25;;;;;;;;;;10276045;28;20045;-72
2023/02/10 13:30:27;;;;;;;39.22;18.15;;;;;;;;;;10321167;28;20022;-75
2023/02/10 13:35:29;;;;;;;34.72;17.88;;;;;;;;;;10325641;28;20018;-80
2023/02/10 13:40:44;;;;;;;39.78;18.25;;;;;;;;;;10319939;28;20026;-73
2023/02/10 13:45:49;;;;;;;44.03;20.17;;;;;;;;;;10319967;28;20046;-74
2023/02/10 13:50:54;;;;;;;40.28;20.05;;;;;;;;;;10319681;28;20018;-80
2023/02/10 13:56:11;;;;;;;40.17;18.13;;;;;;;;;;10319828;28;20023;-72
2023/02/10 14:01:29;;;;;;;47.55;18.60;;;;;;;;;;10319210;28;20077;-76
2023/02/10 14:06:33;;;;;;;43.30;19.63;;;;;;;;;;10304798;28;20027;-74
2023/02/10 14:11:43;;;;;;;36.67;18.48;;;;;;;;;;10315397;28;20537;-75
2023/02/10 14:16:44;;;;;;;42.83;21.10;;;;;;;;;;10318127;28;20045;-77
2023/02/10 14:21:45;;;;;;;41.75;21.35;;;;;;;;;;10325029;28;20729;-74
2023/02/10 14:26:47;;;;;;;41.95;19.85;;;;;;;;;;10300910;28;20027;-71
2023/02/10 14:31:57;;;;;;;47.80;20.15;;;;;;;;;;10316877;28;20580;-78
2023/02/10 14:36:57;;;;;;;41.17;21.00;;;;;;;;;;10294566;28;20033;-76
2023/02/10 14:41:59;;;;;;;42.45;20.20;;;;;;;;;;10316488;28;20033;-74
2023/02/10 14:46:59;;;;;;;47.85;21.60;;;;;;;;;;10321447;28;20105;-74
2023/02/10 14:52:01;;;;;;;47.28;22.70;;;;;;;;;;10317216;28;20040;-79
2023/02/10 14:57:01;;;;;;;45.83;22.13;;;;;;;;;;10296100;28;20030;-79
2023/02/10 15:02:17;;;;;;;48.87;25.70;;;;;;;;;;10320348;28;20029;-76
2023/02/10 15:07:20;;;;;;;61.60;29.63;;;;;;;;;;10315482;28;20037;-74
2023/02/10 15:12:22;;;;;;;53.72;25.15;;;;;;;;;;10299934;28;20539;-77
2023/02/10 15:17:29;;;;;;;51.45;26.23;;;;;;;;;;10316093;28;20046;-72
2023/02/10 15:22:33;;;;;;;53.80;26.30;;;;;;;;;;10298314;28;20031;-78
2023/02/10 15:27:38;;;;;;;59.03;26.05;;;;;;;;;;10316643;28;20471;-75
2023/02/10 15:32:38;;;;;;;70.90;27.38;;;;;;;;;;10321412;28;20484;-76
2023/02/10 15:37:39;;;;;;;71.10;30.88;;;;;;;;;;10320621;28;20527;-77
2023/02/10 15:42:40;;;;;;;67.80;29.90;;;;;;;;;;10316743;28;20670;-76
2023/02/10 15:47:42;;;;;;;75.63;29.02;;;;;;;;;;10313694;28;20081;-74
2023/02/10 15:52:44;;;;;;;61.08;29.90;;;;;;;;;;10303863;28;20030;-72
2023/02/10 15:57:46;;;;;;;65.38;32.45;;;;;;;;;;10317251;28;20026;-75
2023/02/10 16:02:46;;;;;;;77.10;34.20;;;;;;;;;;10317253;28;20535;-77
2023/02/10 16:07:47;;;;;;;74.05;32.72;;;;;;;;;;10318130;28;20019;-72
2023/02/10 16:12:48;;;;;;;77.13;33.63;;;;;;;;;;10321141;28;20480;-84
2023/02/10 16:17:58;;;;;;;66.82;32.65;;;;;;;;;;10321020;28;20076;-80
2023/02/10 16:22:59;;;;;;;85.35;33.67;;;;;;;;;;10320704;28;20014;-78
2023/02/10 16:27:59;;;;;;;69.20;34.80;;;;;;;;;;10323232;28;20521;-73
2023/02/10 16:33:00;;;;;;;89.30;35.72;;;;;;;;;;10323448;28;20263;-77
2023/02/10 16:38:00;;;;;;;81.27;36.93;;;;;;;;;;10307588;28;20509;-79
2023/02/10 16:43:00;;;;;;;82.18;38.83;;;;;;;;;;10322950;28;20046;-79
2023/02/10 16:48:01;;;;;;;83.30;38.13;;;;;;;;;;10306401;28;20129;-70
2023/02/10 16:53:03;;;;;;;80.28;34.63;;;;;;;;;;10323387;28;20408;-77
2023/02/10 16:58:04;;;;;;;84.43;37.28;;;;;;;;;;10322404;28;20022;-76
2023/02/10 17:03:04;;;;;;;81.78;38.25;;;;;;;;;;10317332;28;20029;-73
2023/02/10 17:08:04;;;;;;;95.07;39.08;;;;;;;;;;10322155;28;20408;-78
2023/02/10 17:13:05;;;;;;;80.45;37.97;;;;;;;;;;10322015;28;20026;-77
2023/02/10 17:18:05;;;;;;;83.00;34.87;;;;;;;;;;10320816;28;20050;-76
2023/02/10 17:23:06;;;;;;;73.90;31.80;;;;;;;;;;10315911;28;20271;-71
2023/02/10 17:28:07;;;;;;;78.40;29.20;;;;;;;;;;10305979;28;20022;-78
2023/02/10 17:33:29;;;;;;;56.40;27.58;;;;;;;;;;10320789;28;20023;-72
2023/02/10 17:43:49;;;;;;;57.65;26.70;;;;;;;;;;10321895;28;20058;-77
2023/02/10 17:48:50;;;;;;;61.85;28.65;;;;;;;;;;10320790;28;20037;-81
2023/02/10 17:53:51;;;;;;;63.55;27.40;;;;;;;;;;10320452;28;20398;-76
2023/02/10 17:58:51;;;;;;;62.72;29.48;;;;;;;;;;10318298;28;20099;-73
2023/02/10 18:03:51;;;;;;;71.60;29.05;;;;;;;;;;10294166;28;20550;-80
2023/02/10 18:08:52;;;;;;;72.55;31.75;;;;;;;;;;10303943;28;20467;-72
2023/02/10 18:13:53;;;;;;;61.47;29.70;;;;;;;;;;10296204;28;20517;-73
2023/02/10 18:18:55;;;;;;;69.07;30.65;;;;;;;;;;10298207;28;20022;-76
2023/02/10 18:23:56;;;;;;;77.65;36.63;;;;;;;;;;10314507;28;20026;-73
2023/02/10 18:28:57;;;;;;;81.65;35.38;;;;;;;;;;10313599;28;20026;-72
2023/02/10 18:33:57;;;;;;;75.50;36.60;;;;;;;;;;10310691;28;20032;-77
2023/02/10 18:38:57;;;;;;;87.78;35.25;;;;;;;;;;10298508;28;20026;-74
2023/02/10 18:43:58;;;;;;;80.50;36.30;;;;;;;;;;10319592;28;20077;-77
2023/02/10 18:48:59;;;;;;;90.13;36.05;;;;;;;;;;10314128;28;20146;-75
2023/02/10 18:53:59;;;;;;;76.38;33.58;;;;;;;;;;10312054;28;20058;-73
2023/02/10 18:58:59;;;;;;;82.27;34.90;;;;;;;;;;10290496;28;20019;-71
2023/02/10 19:04:02;;;;;;;67.57;32.30;;;;;;;;;;10289111;28;20026;-74
2023/02/10 19:09:02;;;;;;;76.50;30.90;;;;;;;;;;10313342;28;20036;-73
2023/02/10 19:14:03;;;;;;;61.83;25.10;;;;;;;;;;10314838;28;20037;-71
2023/02/10 19:19:05;;;;;;;60.88;24.20;;;;;;;;;;10313516;28;20073;-72
2023/02/10 19:24:06;;;;;;;42.78;16.42;;;;;;;;;;10312734;28;21039;-72
2023/02/10 19:29:06;;;;;;;35.63;18.27;;;;;;;;;;10312642;28;20057;-72
2023/02/10 19:34:07;;;;;;;34.13;15.93;;;;;;;;;;10312883;28;20467;-75
2023/02/10 19:39:12;;;;;;;35.97;14.35;;;;;;;;;;10296601;28;20081;-77
2023/02/10 19:44:14;;;;;;;38.83;14.52;;;;;;;;;;10311935;28;20047;-76
2023/02/10 19:49:15;;;;;;;36.78;15.57;;;;;;;;;;10302222;28;20030;-75
2023/02/10 19:54:16;;;;;;;26.08;13.93;;;;;;;;;;10305105;28;20056;-71
2023/02/10 19:59:17;;;;;;;30.38;13.52;;;;;;;;;;10321514;28;20054;-77
2023/02/10 20:04:17;;;;;;;24.13;11.33;;;;;;;;;;10300887;28;20117;-73
2023/02/10 20:09:17;;;;;;;28.80;10.07;;;;;;;;;;10317638;28;20022;-78
2023/02/10 20:14:18;;;;;;;27.23;10.38;;;;;;;;;;10320762;28;20085;-80
2023/02/10 20:19:18;;;;;;;24.30;10.63;;;;;;;;;;10300538;28;20023;-75
2023/02/10 20:24:18;;;;;;;26.33;12.80;;;;;;;;;;10304478;28;20117;-75
2023/02/10 20:29:19;;;;;;;23.90;10.45;;;;;;;;;;10320303;28;20057;-72
2023/02/10 20:34:19;;;;;;;31.15;12.15;;;;;;;;;;10297691;28;20034;-75
2023/02/10 20:39:19;;;;;;;27.08;10.57;;;;;;;;;;10321484;28;20489;-73
2023/02/10 20:44:20;;;;;;;28.00;11.13;;;;;;;;;;10316310;28;20111;-73
2023/02/10 20:49:20;;;;;;;30.05;12.25;;;;;;;;;;10313861;28;20035;-74
2023/02/10 20:54:21;;;;;;;30.30;13.00;;;;;;;;;;10300015;28;20480;-72
2023/02/10 20:59:21;;;;;;;26.25;12.13;;;;;;;;;;10317257;28;20027;-71
2023/02/10 21:04:21;;;;;;;24.65;12.27;;;;;;;;;;10318212;28;20026;-73
2023/02/10 21:09:23;;;;;;;20.65;9.68;;;;;;;;;;10319392;28;20045;-74
2023/02/10 21:14:23;;;;;;;28.50;11.75;;;;;;;;;;10303861;28;20393;-71
2023/02/10 21:19:24;;;;;;;27.97;11.87;;;;;;;;;;10317222;28;20022;-73
2023/02/10 21:24:24;;;;;;;31.73;13.82;;;;;;;;;;10319582;28;20026;-70
2023/02/10 21:29:25;;;;;;;31.15;14.70;;;;;;;;;;10297406;28;20030;-70
2023/02/10 21:34:25;;;;;;;24.73;12.75;;;;;;;;;;10322047;28;20408;-71
2023/02/10 21:39:25;;;;;;;28.23;14.70;;;;;;;;;;10297811;28;20113;-74
2023/02/10 21:44:28;;;;;;;35.42;16.17;;;;;;;;;;10290105;28;20058;-73
2023/02/10 21:49:29;;;;;;;31.63;14.73;;;;;;;;;;10299468;28;20022;-77
2023/02/10 21:54:34;;;;;;;38.53;16.02;;;;;;;;;;10318379;28;20097;-78
2023/02/10 21:59:35;;;;;;;34.15;16.88;;;;;;;;;;10318198;28;20027;-77
2023/02/10 22:04:35;;;;;;;43.20;17.00;;;;;;;;;;10314867;28;20089;-71
2023/02/10 22:09:36;;;;;;;27.45;15.20;;;;;;;;;;10317627;28;20034;-77
2023/02/10 22:14:36;;;;;;;33.72;15.57;;;;;;;;;;10283654;28;20051;-72
2023/02/10 22:19:36;;;;;;;28.42;16.23;;;;;;;;;;10297506;28;20559;-74
2023/02/10 22:24:37;;;;;;;30.60;15.17;;;;;;;;;;10289653;28;20505;-75
2023/02/10 22:29:37;;;;;;;36.03;16.00;;;;;;;;;;10270351;28;20037;-75
2023/02/10 22:34:37;;;;;;;40.47;17.90;;;;;;;;;;10309794;28;20092;-75
2023/02/10 22:39:37;;;;;;;29.48;15.15;;;;;;;;;;10316563;28;20030;-76
2023/02/10 22:44:38;;;;;;;33.60;16.00;;;;;;;;;;10319491;28;20058;-76
2023/02/10 22:49:39;;;;;;;37.22;16.15;;;;;;;;;;10313306;28;20065;-77
2023/02/10 22:54:39;;;;;;;29.58;16.15;;;;;;;;;;10308072;28;20026;-73
2023/02/10 22:59:41;;;;;;;35.92;15.95;;;;;;;;;;10302289;28;20023;-75
2023/02/10 23:04:41;;;;;;;29.15;14.13;;;;;;;;;;10319659;28;20041;-74
2023/02/10 23:09:43;;;;;;;36.77;18.80;;;;;;;;;;10319413;28;20030;-79
2023/02/10 23:14:43;;;;;;;36.38;16.67;;;;;;;;;;10318649;28;20488;-77
2023/02/10 23:19:44;;;;;;;26.05;13.75;;;;;;;;;;10309589;28;20029;-74
2023/02/10 23:24:46;;;;;;;45.10;20.15;;;;;;;;;;10325765;28;20028;-73
2023/02/10 23:29:47;;;;;;;40.78;15.40;;;;;;;;;;10326069;28;20019;-75
2023/02/10 23:34:47;;;;;;;34.75;14.48;;;;;;;;;;10325258;28;20511;-79
2023/02/10 23:39:48;;;;;;;29.23;15.18;;;;;;;;;;10324139;28;20023;-73
2023/02/10 23:44:49;;;;;;;34.65;16.35;;;;;;;;;;10324770;28;20054;-82
2023/02/10 23:49:53;;;;;;;29.10;14.43;;;;;;;;;;10308546;28;20040;-72
2023/02/10 23:54:53;;;;;;;30.33;13.80;;;;;;;;;;10323656;28;20113;-75
2023/02/10 23:59:53;;;;;;;32.60;15.32;;;;;;;;;;10324727;28;20018;-80
